createdAt,value
2023-04-15T00:00:45.348Z,98.852539
2023-04-15T00:01:55.090Z,98.956299
2023-04-15T00:03:04.888Z,98.956299
2023-04-15T00:04:14.492Z,98.852539
2023-04-15T00:05:23.121Z,99.206543
2023-04-15T00:06:31.818Z,99.310303
2023-04-15T00:07:41.447Z,99.414062
2023-04-15T00:08:50.150Z,99.621582
2023-04-15T00:09:59.897Z,99.517822
2023-04-15T00:11:09.557Z,99.719238
2023-04-15T00:12:19.277Z,99.884033
2023-04-15T00:13:28.050Z,99.261475
2023-04-15T00:14:35.835Z,99.261475
2023-04-15T00:15:44.550Z,99.365234
2023-04-15T00:16:54.275Z,99.572754
2023-04-15T00:18:02.954Z,99.310303
2023-04-15T00:19:12.709Z,99.310303
2023-04-15T00:20:22.438Z,99.414062
2023-04-15T00:21:31.210Z,99.414062
2023-04-15T00:22:39.901Z,99.310303
2023-04-15T00:23:48.607Z,99.468994
2023-04-15T00:24:58.329Z,99.310303
2023-04-15T00:26:08.076Z,99.310303
2023-04-15T00:27:16.764Z,99.310303
2023-04-15T00:28:25.466Z,99.468994
2023-04-15T00:29:35.208Z,99.261475
2023-04-15T00:30:43.984Z,99.206543
2023-04-15T00:31:52.652Z,99.468994
2023-04-15T00:33:01.396Z,99.468994
2023-04-15T00:34:10.107Z,99.365234
2023-04-15T00:35:19.838Z,99.261475
2023-04-15T00:36:27.536Z,99.060059
2023-04-15T00:37:35.240Z,99.157715
2023-04-15T00:38:44.939Z,99.365234
2023-04-15T00:39:53.635Z,99.261475
2023-04-15T00:41:02.303Z,99.365234
2023-04-15T00:42:10.997Z,99.157715
2023-04-15T00:43:19.708Z,99.261475
2023-04-15T00:44:29.467Z,99.157715
2023-04-15T00:45:37.181Z,99.365234
2023-04-15T00:46:46.847Z,99.468994
2023-04-15T00:47:56.565Z,99.157715
2023-04-15T00:49:05.230Z,99.261475
2023-04-15T00:50:13.911Z,99.261475
2023-04-15T00:51:22.642Z,99.157715
2023-04-15T00:52:31.356Z,99.157715
2023-04-15T00:53:41.121Z,98.956299
2023-04-15T00:54:49.847Z,99.060059
2023-04-15T00:55:57.665Z,98.956299
2023-04-15T00:57:07.271Z,98.956299
2023-04-15T00:58:16.940Z,99.060059
2023-04-15T00:59:24.654Z,98.748779
2023-04-15T01:00:34.401Z,98.852539
2023-04-15T01:01:43.138Z,99.060059
2023-04-15T01:02:52.934Z,98.956299
2023-04-15T01:04:00.615Z,99.060059
2023-04-15T01:05:08.311Z,98.956299
2023-04-15T01:06:16.990Z,98.852539
2023-04-15T01:07:25.741Z,98.803711
2023-04-15T01:08:34.476Z,98.64502
2023-04-15T01:09:44.195Z,98.64502
2023-04-15T01:10:52.955Z,98.64502
2023-04-15T01:12:00.645Z,98.64502
2023-04-15T01:13:10.373Z,98.956299
2023-04-15T01:14:19.047Z,98.852539
2023-04-15T01:15:27.735Z,98.852539
2023-04-15T01:16:36.452Z,98.748779
2023-04-15T01:17:46.181Z,98.748779
2023-04-15T01:18:55.835Z,98.748779
2023-04-15T01:20:04.622Z,98.956299
2023-04-15T01:21:12.278Z,98.596191
2023-04-15T01:22:21.978Z,98.699951
2023-04-15T01:23:31.726Z,98.596191
2023-04-15T01:24:41.432Z,98.596191
2023-04-15T01:25:50.192Z,98.54126
2023-04-15T01:26:58.861Z,98.54126
2023-04-15T01:28:08.592Z,98.64502
2023-04-15T01:29:17.313Z,98.852539
2023-04-15T01:30:25.019Z,98.852539
2023-04-15T01:31:34.784Z,98.748779
2023-04-15T01:32:43.457Z,98.54126
2023-04-15T01:33:53.127Z,98.748779
2023-04-15T01:35:01.840Z,98.699951
2023-04-15T01:36:10.567Z,98.394775
2023-04-15T01:37:20.389Z,98.4375
2023-04-15T01:38:28.148Z,98.54126
2023-04-15T01:39:37.907Z,98.64502
2023-04-15T01:40:47.651Z,98.64502
2023-04-15T01:41:56.389Z,98.64502
2023-04-15T01:43:05.064Z,98.64502
2023-04-15T01:44:14.816Z,98.64502
2023-04-15T01:45:23.636Z,98.54126
2023-04-15T01:46:33.290Z,98.4375
2023-04-15T01:47:42.036Z,98.64502
2023-04-15T01:48:49.751Z,98.4375
2023-04-15T01:49:59.458Z,98.64502
2023-04-15T01:51:08.203Z,98.4375
2023-04-15T01:52:16.884Z,98.4375
2023-04-15T01:53:25.670Z,98.4375
2023-04-15T01:54:34.414Z,98.596191
2023-04-15T01:55:44.102Z,98.22998
2023-04-15T01:56:51.813Z,98.291016
2023-04-15T01:57:59.514Z,98.22998
2023-04-15T01:59:09.239Z,98.187256
2023-04-15T02:00:17.921Z,98.187256
2023-04-15T02:01:27.703Z,97.875977
2023-04-15T02:02:36.453Z,97.875977
2023-04-15T02:03:45.183Z,98.083496
2023-04-15T02:04:54.863Z,97.821045
2023-04-15T02:06:02.547Z,97.924805
2023-04-15T02:07:11.232Z,97.924805
2023-04-15T02:08:20.908Z,97.821045
2023-04-15T02:09:29.610Z,97.924805
2023-04-15T02:10:38.356Z,98.022461
2023-04-15T02:11:47.067Z,98.126221
2023-04-15T02:12:55.748Z,98.022461
2023-04-15T02:14:05.439Z,97.979736
2023-04-15T02:15:14.093Z,97.979736
2023-04-15T02:16:21.843Z,97.924805
2023-04-15T02:17:31.479Z,98.22998
2023-04-15T02:18:40.188Z,97.979736
2023-04-15T02:19:48.859Z,98.022461
2023-04-15T02:20:57.565Z,98.022461
2023-04-15T02:22:06.246Z,98.33374
2023-04-15T02:23:15.921Z,98.33374
2023-04-15T02:24:23.657Z,98.126221
2023-04-15T02:25:31.348Z,98.187256
2023-04-15T02:26:41.019Z,98.126221
2023-04-15T02:27:50.766Z,98.022461
2023-04-15T02:29:00.690Z,98.126221
2023-04-15T02:30:09.179Z,98.022461
2023-04-15T02:31:17.876Z,98.022461
2023-04-15T02:32:27.653Z,98.22998
2023-04-15T02:33:34.323Z,98.22998
2023-04-15T02:34:42.002Z,98.126221
2023-04-15T02:35:51.747Z,98.126221
2023-04-15T02:37:01.513Z,98.022461
2023-04-15T02:38:10.170Z,98.022461
2023-04-15T02:39:19.882Z,97.924805
2023-04-15T02:40:28.580Z,97.821045
2023-04-15T02:41:38.346Z,97.924805
2023-04-15T02:42:47.028Z,97.717285
2023-04-15T02:43:55.704Z,97.821045
2023-04-15T02:45:05.386Z,97.924805
2023-04-15T02:46:14.105Z,97.924805
2023-04-15T02:47:22.803Z,97.509766
2023-04-15T02:48:31.504Z,97.613525
2023-04-15T02:49:40.175Z,97.613525
2023-04-15T02:50:49.869Z,97.509766
2023-04-15T02:51:59.589Z,97.509766
2023-04-15T02:53:07.271Z,97.302246
2023-04-15T02:54:16.959Z,97.198486
2023-04-15T02:55:25.629Z,97.155762
2023-04-15T02:56:34.384Z,96.948242
2023-04-15T02:57:43.112Z,96.948242
2023-04-15T02:58:51.792Z,97.052002
2023-04-15T03:00:01.507Z,97.052002
2023-04-15T03:01:09.318Z,97.259521
2023-04-15T03:02:17.056Z,97.052002
2023-04-15T03:03:27.706Z,97.198486
2023-04-15T03:04:37.403Z,97.259521
2023-04-15T03:05:46.135Z,97.155762
2023-04-15T03:06:55.843Z,97.198486
2023-04-15T03:08:04.520Z,97.155762
2023-04-15T03:09:13.197Z,96.844482
2023-04-15T03:10:22.887Z,96.990967
2023-04-15T03:11:31.603Z,96.887207
2023-04-15T03:12:40.313Z,96.948242
2023-04-15T03:13:48.966Z,96.740723
2023-04-15T03:14:58.670Z,96.533203
2023-04-15T03:16:08.410Z,96.740723
2023-04-15T03:17:16.074Z,96.533203
2023-04-15T03:18:24.807Z,96.636963
2023-04-15T03:19:34.500Z,96.844482
2023-04-15T03:20:43.199Z,96.435547
2023-04-15T03:21:52.934Z,96.533203
2023-04-15T03:23:01.612Z,96.228027
2023-04-15T03:24:11.311Z,96.228027
2023-04-15T03:25:21.027Z,96.331787
2023-04-15T03:26:28.737Z,96.331787
2023-04-15T03:27:36.423Z,96.124268
2023-04-15T03:28:47.074Z,96.124268
2023-04-15T03:29:55.790Z,96.124268
2023-04-15T03:31:04.563Z,96.020508
2023-04-15T03:32:13.216Z,96.020508
2023-04-15T03:33:21.985Z,95.916748
2023-04-15T03:34:30.698Z,96.081543
2023-04-15T03:35:39.408Z,95.562744
2023-04-15T03:36:47.122Z,95.562744
2023-04-15T03:37:56.839Z,95.812988
2023-04-15T03:39:05.599Z,95.709229
2023-04-15T03:40:14.328Z,95.605469
2023-04-15T03:41:23.103Z,95.709229
2023-04-15T03:42:31.773Z,95.770264
2023-04-15T03:43:41.458Z,95.605469
2023-04-15T03:44:50.171Z,95.709229
2023-04-15T03:46:01.446Z,95.501709
2023-04-15T03:47:09.650Z,95.501709
2023-04-15T03:48:19.389Z,95.501709
2023-04-15T03:49:29.052Z,95.709229
2023-04-15T03:50:37.803Z,95.501709
2023-04-15T03:51:47.476Z,95.812988
2023-04-15T03:52:57.200Z,95.501709
2023-04-15T03:54:04.880Z,95.916748
2023-04-15T03:55:12.594Z,95.300293
2023-04-15T03:56:22.281Z,95.501709
2023-04-15T03:57:31.013Z,95.501709
2023-04-15T03:58:40.744Z,95.404053
2023-04-15T03:59:50.398Z,95.404053
2023-04-15T04:00:59.092Z,95.404053
2023-04-15T04:02:08.849Z,95.196533
2023-04-15T04:03:17.668Z,95.404053
2023-04-15T04:04:27.243Z,95.501709
2023-04-15T04:05:36.888Z,95.300293
2023-04-15T04:06:45.641Z,95.501709
2023-04-15T04:07:55.288Z,95.501709
2023-04-15T04:09:04.003Z,95.605469
2023-04-15T04:10:12.651Z,95.300293
2023-04-15T04:11:22.425Z,95.300293
2023-04-15T04:12:31.120Z,95.812988
2023-04-15T04:13:38.825Z,95.709229
2023-04-15T04:14:48.508Z,95.501709
2023-04-15T04:15:57.222Z,95.501709
2023-04-15T04:17:05.938Z,95.501709
2023-04-15T04:18:14.593Z,95.300293
2023-04-15T04:19:23.266Z,95.196533
2023-04-15T04:20:32.966Z,95.404053
2023-04-15T04:21:41.669Z,95.196533
2023-04-15T04:22:49.375Z,95.300293
2023-04-15T04:23:59.089Z,94.989014
2023-04-15T04:25:07.769Z,95.196533
2023-04-15T04:26:16.457Z,94.989014
2023-04-15T04:27:25.204Z,95.300293
2023-04-15T04:28:33.899Z,95.196533
2023-04-15T04:29:43.639Z,95.196533
2023-04-15T04:30:51.344Z,95.092773
2023-04-15T04:31:59.076Z,95.196533
2023-04-15T04:33:08.745Z,94.989014
2023-04-15T04:34:18.474Z,94.989014
2023-04-15T04:35:28.175Z,94.885254
2023-04-15T04:36:37.860Z,95.196533
2023-04-15T04:37:46.586Z,95.092773
2023-04-15T04:38:56.369Z,95.092773
2023-04-15T04:40:05.110Z,95.196533
2023-04-15T04:41:12.758Z,95.300293
2023-04-15T04:42:22.515Z,95.300293
2023-04-15T04:43:31.207Z,95.092773
2023-04-15T04:44:39.913Z,95.300293
2023-04-15T04:45:49.737Z,95.501709
2023-04-15T04:46:58.551Z,95.300293
2023-04-15T04:48:08.287Z,95.092773
2023-04-15T04:49:16.936Z,95.153809
2023-04-15T04:50:25.635Z,94.677734
2023-04-15T04:51:35.358Z,94.781494
2023-04-15T04:52:45.039Z,94.781494
2023-04-15T04:53:54.760Z,94.573975
2023-04-15T04:55:03.461Z,94.470215
2023-04-15T04:56:13.155Z,94.372559
2023-04-15T04:57:22.912Z,94.677734
2023-04-15T04:58:30.633Z,94.53125
2023-04-15T04:59:38.337Z,94.42749
2023-04-15T05:00:48.098Z,94.32373
2023-04-15T05:01:56.770Z,94.061279
2023-04-15T05:03:05.614Z,94.061279
2023-04-15T05:04:15.368Z,93.95752
2023-04-15T05:05:23.913Z,93.85376
2023-04-15T05:06:31.581Z,93.85376
2023-04-15T05:07:41.288Z,94.018555
2023-04-15T05:08:51.020Z,93.707275
2023-04-15T05:10:00.783Z,93.438721
2023-04-15T05:11:09.498Z,93.29834
2023-04-15T05:12:18.238Z,93.499756
2023-04-15T05:13:27.920Z,93.09082
2023-04-15T05:14:35.598Z,93.09082
2023-04-15T05:15:43.345Z,93.19458
2023-04-15T05:16:52.988Z,92.987061
2023-04-15T05:18:01.758Z,92.883301
2023-04-15T05:19:10.406Z,92.779541
2023-04-15T05:20:21.116Z,92.675781
2023-04-15T05:21:29.770Z,92.822266
2023-04-15T05:22:39.459Z,92.779541
2023-04-15T05:23:49.138Z,92.614746
2023-04-15T05:24:57.857Z,92.41333
2023-04-15T05:26:07.568Z,92.510986
2023-04-15T05:27:17.295Z,92.41333
2023-04-15T05:28:25.987Z,92.30957
2023-04-15T05:29:34.681Z,92.30957
2023-04-15T05:30:44.371Z,92.163086
2023-04-15T05:31:54.089Z,92.059326
2023-04-15T05:33:01.837Z,91.748047
2023-04-15T05:34:10.450Z,91.235352
2023-04-15T05:35:20.258Z,91.339111
2023-04-15T05:36:28.890Z,91.235352
2023-04-15T05:37:37.673Z,91.027832
2023-04-15T05:38:47.370Z,90.777588
2023-04-15T05:39:56.050Z,90.612793
2023-04-15T05:41:05.748Z,90.673828
2023-04-15T05:42:13.464Z,89.953613
2023-04-15T05:43:22.308Z,89.483643
2023-04-15T05:44:31.867Z,89.685059
2023-04-15T05:45:41.556Z,89.483643
2023-04-15T05:46:51.294Z,89.483643
2023-04-15T05:48:00.151Z,89.276123
2023-04-15T05:49:08.789Z,89.337158
2023-04-15T05:50:18.575Z,89.233398
2023-04-15T05:51:27.241Z,88.201904
2023-04-15T05:52:35.013Z,87.72583
2023-04-15T05:53:44.720Z,87.896729
2023-04-15T05:54:53.512Z,87.17041
2023-04-15T05:56:03.172Z,86.59668
2023-04-15T05:57:12.863Z,86.761475
2023-04-15T05:58:22.613Z,86.968994
2023-04-15T05:59:32.344Z,86.761475
2023-04-15T06:00:41.091Z,86.553955
2023-04-15T06:01:49.849Z,86.242676
2023-04-15T06:02:59.635Z,86.657715
2023-04-15T06:04:09.331Z,86.517334
2023-04-15T06:05:18.048Z,86.206055
2023-04-15T06:06:27.733Z,85.791016
2023-04-15T06:07:36.482Z,85.38208
2023-04-15T06:08:46.201Z,85.693359
2023-04-15T06:09:54.908Z,85.48584
2023-04-15T06:11:02.814Z,85.5896
2023-04-15T06:12:13.487Z,86.05957
2023-04-15T06:13:22.314Z,85.443115
2023-04-15T06:14:32.007Z,85.174561
2023-04-15T06:15:40.753Z,85.339355
2023-04-15T06:16:49.443Z,84.93042
2023-04-15T06:17:59.149Z,85.339355
2023-04-15T06:19:07.889Z,84.82666
2023-04-15T06:20:15.667Z,84.619141
2023-04-15T06:21:25.439Z,84.47876
2023-04-15T06:22:35.213Z,84.375
2023-04-15T06:23:42.928Z,84.16748
2023-04-15T06:24:52.613Z,84.106445
2023-04-15T06:26:01.389Z,83.38623
2023-04-15T06:27:11.087Z,83.795166
2023-04-15T06:28:18.863Z,84.47876
2023-04-15T06:29:27.549Z,82.830811
2023-04-15T06:30:37.238Z,83.447266
2023-04-15T06:31:45.988Z,83.349609
2023-04-15T06:32:55.698Z,82.830811
2023-04-15T06:34:04.399Z,82.629395
2023-04-15T06:35:13.083Z,82.629395
2023-04-15T06:36:22.791Z,83.14209
2023-04-15T06:37:31.497Z,82.93457
2023-04-15T06:38:39.203Z,82.177734
2023-04-15T06:39:48.905Z,82.281494
2023-04-15T06:40:57.582Z,82.897949
2023-04-15T06:42:07.285Z,82.073975
2023-04-15T06:43:15.990Z,81.45752
2023-04-15T06:44:24.685Z,81.970215
2023-04-15T06:45:34.399Z,81.762695
2023-04-15T06:46:43.039Z,81.665039
2023-04-15T06:47:51.797Z,81.048584
2023-04-15T06:49:01.650Z,81.726074
2023-04-15T06:50:10.243Z,81.420898
2023-04-15T06:51:18.934Z,81.213379
2023-04-15T06:52:27.636Z,81.213379
2023-04-15T06:53:36.321Z,80.908203
2023-04-15T06:54:46.048Z,80.389404
2023-04-15T06:55:55.793Z,80.700684
2023-04-15T06:57:05.493Z,80.084229
2023-04-15T06:58:15.186Z,81.005859
2023-04-15T06:59:24.894Z,80.285645
2023-04-15T07:00:34.586Z,80.456543
2023-04-15T07:01:44.268Z,79.119873
2023-04-15T07:02:52.963Z,78.918457
2023-04-15T07:04:00.718Z,78.503418
2023-04-15T07:05:10.347Z,78.503418
2023-04-15T07:06:19.047Z,78.918457
2023-04-15T07:07:28.759Z,79.016113
2023-04-15T07:08:38.468Z,78.503418
2023-04-15T07:09:47.173Z,78.094482
2023-04-15T07:10:56.848Z,78.503418
2023-04-15T07:12:05.574Z,79.187012
2023-04-15T07:13:13.284Z,78.979492
2023-04-15T07:14:23.029Z,78.533936
2023-04-15T07:15:31.757Z,78.289795
2023-04-15T07:16:41.490Z,77.508545
2023-04-15T07:17:51.203Z,76.89209
2023-04-15T07:19:01.126Z,77.404785
2023-04-15T07:20:10.667Z,77.7771
2023-04-15T07:21:18.366Z,77.368164
2023-04-15T07:22:26.120Z,77.166748
2023-04-15T07:23:35.851Z,76.922607
2023-04-15T07:24:44.596Z,76.037598
2023-04-15T07:25:53.279Z,75.897217
2023-04-15T07:27:02.001Z,75.488281
2023-04-15T07:28:10.656Z,75.317383
2023-04-15T07:29:20.373Z,76.409912
2023-04-15T07:30:29.087Z,75.079346
2023-04-15T07:31:36.836Z,74.975586
2023-04-15T07:32:47.491Z,74.462891
2023-04-15T07:33:57.128Z,75.280762
2023-04-15T07:35:06.847Z,75.488281
2023-04-15T07:36:15.570Z,74.462891
2023-04-15T07:37:24.255Z,74.871826
2023-04-15T07:38:33.900Z,75.964355
2023-04-15T07:39:41.655Z,75.55542
2023-04-15T07:40:49.368Z,74.42627
2023-04-15T07:41:59.144Z,73.504639
2023-04-15T07:43:07.791Z,74.21875
2023-04-15T07:44:17.478Z,73.638916
2023-04-15T07:45:26.174Z,74.047852
2023-04-15T07:46:35.007Z,74.151611
2023-04-15T07:47:44.679Z,74.21875
2023-04-15T07:48:53.334Z,74.389648
2023-04-15T07:50:02.037Z,73.675537
2023-04-15T07:51:11.716Z,73.706055
2023-04-15T07:52:20.406Z,74.804688
2023-04-15T07:53:29.129Z,73.608398
2023-04-15T07:54:37.826Z,74.731445
2023-04-15T07:55:46.523Z,73.980713
2023-04-15T07:56:55.236Z,73.876953
2023-04-15T07:58:03.938Z,73.779297
2023-04-15T07:59:12.638Z,73.638916
2023-04-15T08:00:22.440Z,73.400879
2023-04-15T08:01:31.156Z,72.546387
2023-04-15T08:02:41.009Z,72.039795
2023-04-15T08:03:49.692Z,71.728516
2023-04-15T08:04:58.252Z,71.624756
2023-04-15T08:06:07.955Z,70.977783
2023-04-15T08:07:15.633Z,70.263672
2023-04-15T08:08:25.391Z,69.519043
2023-04-15T08:09:35.078Z,69.519043
2023-04-15T08:10:44.749Z,69.824219
2023-04-15T08:11:54.501Z,69.519043
2023-04-15T08:13:03.177Z,69.244385
2023-04-15T08:14:11.833Z,69.854736
2023-04-15T08:15:21.563Z,69.854736
2023-04-15T08:16:29.307Z,69.244385
2023-04-15T08:17:37.056Z,69.342041
2023-04-15T08:18:46.768Z,70.025635
2023-04-15T08:19:55.500Z,69.281006
2023-04-15T08:21:04.234Z,69.244385
2023-04-15T08:22:15.662Z,68.328857
2023-04-15T08:23:22.851Z,68.395996
2023-04-15T08:24:32.723Z,67.956543
2023-04-15T08:25:43.439Z,67.138672
2023-04-15T08:26:51.273Z,66.424561
2023-04-15T08:28:00.967Z,66.967773
2023-04-15T08:29:09.663Z,67.175293
2023-04-15T08:30:18.441Z,67.785645
2023-04-15T08:31:27.217Z,67.578125
2023-04-15T08:32:35.935Z,67.205811
2023-04-15T08:33:45.598Z,67.681885
2023-04-15T08:34:54.279Z,67.205811
2023-04-15T08:36:02.987Z,67.407227
2023-04-15T08:37:12.876Z,67.712402
2023-04-15T08:38:22.420Z,68.121338
2023-04-15T08:39:33.104Z,68.737793
2023-04-15T08:40:42.976Z,68.121338
2023-04-15T08:41:51.536Z,68.603516
2023-04-15T08:43:01.260Z,68.023682
2023-04-15T08:44:08.941Z,68.804932
2023-04-15T08:45:18.636Z,67.376709
2023-04-15T08:46:28.342Z,68.023682
2023-04-15T08:47:37.045Z,68.530273
2023-04-15T08:48:45.686Z,68.432617
2023-04-15T08:49:55.378Z,68.530273
2023-04-15T08:51:05.104Z,68.157959
2023-04-15T08:52:14.828Z,68.121338
2023-04-15T08:53:22.534Z,68.225098
2023-04-15T08:54:31.253Z,67.437744
2023-04-15T08:55:40.939Z,68.084717
2023-04-15T08:56:49.727Z,68.389893
2023-04-15T08:57:58.338Z,68.902588
2023-04-15T08:59:08.040Z,69.378662
2023-04-15T09:00:16.880Z,68.664551
2023-04-15T09:01:26.616Z,68.835449
2023-04-15T09:02:36.329Z,68.530273
2023-04-15T09:03:46.130Z,68.432617
2023-04-15T09:04:53.852Z,68.432617
2023-04-15T09:06:02.564Z,68.603516
2023-04-15T09:07:12.302Z,68.737793
2023-04-15T09:08:22.039Z,68.530273
2023-04-15T09:09:31.700Z,68.328857
2023-04-15T09:10:40.415Z,68.432617
2023-04-15T09:11:50.098Z,68.499756
2023-04-15T09:12:58.820Z,68.536377
2023-04-15T09:14:08.481Z,68.164062
2023-04-15T09:15:17.168Z,66.52832
2023-04-15T09:16:25.941Z,67.242432
2023-04-15T09:17:34.647Z,67.376709
2023-04-15T09:18:43.319Z,66.864014
2023-04-15T09:19:52.045Z,67.071533
2023-04-15T09:21:01.760Z,67.102051
2023-04-15T09:22:11.444Z,66.998291
2023-04-15T09:23:20.134Z,67.272949
2023-04-15T09:24:29.870Z,67.138672
2023-04-15T09:25:38.604Z,66.52832
2023-04-15T09:26:48.347Z,66.73584
2023-04-15T09:27:57.101Z,66.394043
2023-04-15T09:29:04.829Z,66.601562
2023-04-15T09:30:14.621Z,66.73584
2023-04-15T09:31:24.643Z,67.041016
2023-04-15T09:32:33.350Z,66.73584
2023-04-15T09:33:43.132Z,67.449951
2023-04-15T09:34:51.877Z,67.547607
2023-04-15T09:36:01.693Z,67.242432
2023-04-15T09:37:09.389Z,67.822266
2023-04-15T09:38:18.148Z,67.211914
2023-04-15T09:39:27.865Z,66.424561
2023-04-15T09:40:36.572Z,66.73584
2023-04-15T09:41:45.298Z,67.547607
2023-04-15T09:42:53.988Z,67.852783
2023-04-15T09:44:04.671Z,67.41333
2023-04-15T09:45:14.451Z,66.906738
2023-04-15T09:46:23.272Z,66.906738
2023-04-15T09:47:30.923Z,67.449951
2023-04-15T09:48:40.598Z,67.724609
2023-04-15T09:49:49.425Z,68.029785
2023-04-15T09:50:59.117Z,67.724609
2023-04-15T09:52:07.810Z,67.51709
2023-04-15T09:53:16.517Z,68.127441
2023-04-15T09:54:26.202Z,68.536377
2023-04-15T09:55:33.907Z,67.822266
2023-04-15T09:56:42.646Z,69.250488
2023-04-15T09:57:52.348Z,68.743896
2023-04-15T09:59:02.126Z,68.261719
2023-04-15T10:00:11.836Z,68.908691
2023-04-15T10:01:22.100Z,69.110107
2023-04-15T10:02:30.879Z,69.421387
2023-04-15T10:03:39.686Z,69.519043
2023-04-15T10:04:48.290Z,69.421387
2023-04-15T10:05:56.996Z,69.65332
2023-04-15T10:07:06.745Z,69.65332
2023-04-15T10:08:16.473Z,69.75708
2023-04-15T10:09:25.185Z,69.75708
2023-04-15T10:10:34.884Z,69.86084
2023-04-15T10:11:43.591Z,69.65332
2023-04-15T10:12:52.302Z,69.451904
2023-04-15T10:14:01.214Z,69.86084
2023-04-15T10:15:10.756Z,69.244385
2023-04-15T10:16:20.692Z,68.737793
2023-04-15T10:17:29.339Z,68.939209
2023-04-15T10:18:37.074Z,68.634033
2023-04-15T10:19:46.783Z,68.328857
2023-04-15T10:20:56.598Z,68.835449
2023-04-15T10:22:06.441Z,69.042969
2023-04-15T10:23:15.149Z,68.969727
2023-04-15T10:24:24.845Z,69.042969
2023-04-15T10:25:34.523Z,68.328857
2023-04-15T10:26:41.306Z,69.042969
2023-04-15T10:27:49.014Z,68.701172
2023-04-15T10:29:00.030Z,68.499756
2023-04-15T10:30:08.400Z,67.987061
2023-04-15T10:31:17.175Z,67.889404
2023-04-15T10:32:25.888Z,68.804932
2023-04-15T10:33:34.598Z,68.29834
2023-04-15T10:34:44.428Z,68.499756
2023-04-15T10:35:53.134Z,68.878174
2023-04-15T10:37:01.941Z,68.499756
2023-04-15T10:38:11.830Z,68.804932
2023-04-15T10:39:20.548Z,68.328857
2023-04-15T10:40:29.349Z,68.530273
2023-04-15T10:41:39.051Z,68.835449
2023-04-15T10:42:48.863Z,68.530273
2023-04-15T10:43:57.658Z,68.737793
2023-04-15T10:45:06.387Z,68.603516
2023-04-15T10:46:14.131Z,69.488525
2023-04-15T10:47:23.904Z,68.743896
2023-04-15T10:48:32.606Z,68.127441
2023-04-15T10:49:41.380Z,67.077637
2023-04-15T10:50:51.159Z,67.352295
2023-04-15T10:51:59.887Z,66.436768
2023-04-15T10:53:09.600Z,66.363525
2023-04-15T10:54:18.426Z,66.363525
2023-04-15T10:55:28.171Z,66.363525
2023-04-15T10:56:36.896Z,66.876221
2023-04-15T10:57:46.594Z,66.265869
2023-04-15T10:58:56.373Z,66.571045
2023-04-15T11:00:06.483Z,66.265869
2023-04-15T11:01:13.234Z,66.772461
2023-04-15T11:02:22.115Z,66.467285
2023-04-15T11:03:32.940Z,66.571045
2023-04-15T11:04:43.032Z,66.571045
2023-04-15T11:05:51.281Z,65.246582
2023-04-15T11:07:01.137Z,66.363525
2023-04-15T11:08:11.095Z,65.856934
2023-04-15T11:09:20.988Z,65.679932
2023-04-15T11:10:29.741Z,65.374756
2023-04-15T11:11:37.503Z,65.814209
2023-04-15T11:12:46.527Z,66.497803
2023-04-15T11:13:55.307Z,66.601562
2023-04-15T11:15:04.070Z,65.887451
2023-04-15T11:16:13.942Z,65.582275
2023-04-15T11:17:22.569Z,66.497803
2023-04-15T11:18:32.273Z,66.668701
2023-04-15T11:19:41.986Z,65.753174
2023-04-15T11:20:50.705Z,65.374756
2023-04-15T11:22:00.515Z,64.868164
2023-04-15T11:23:14.868Z,66.119385
2023-04-15T11:24:19.183Z,66.802979
2023-04-15T11:25:29.002Z,66.424561
2023-04-15T11:26:37.804Z,66.394043
2023-04-15T11:27:47.570Z,66.802979
2023-04-15T11:28:55.319Z,66.296387
2023-04-15T11:30:05.149Z,66.601562
2023-04-15T11:31:14.966Z,66.394043
2023-04-15T11:32:23.720Z,66.876221
2023-04-15T11:33:33.366Z,66.497803
2023-04-15T11:34:42.212Z,66.601562
2023-04-15T11:35:51.968Z,65.985107
2023-04-15T11:37:01.776Z,66.326904
2023-04-15T11:38:09.532Z,66.73584
2023-04-15T11:39:18.314Z,67.755127
2023-04-15T11:40:28.034Z,67.138672
2023-04-15T11:41:37.865Z,67.272949
2023-04-15T11:42:50.058Z,66.998291
2023-04-15T11:43:57.387Z,67.816162
2023-04-15T11:45:06.139Z,67.712402
2023-04-15T11:46:15.868Z,68.023682
2023-04-15T11:47:23.650Z,67.950439
2023-04-15T11:48:32.410Z,68.969727
2023-04-15T11:49:42.113Z,69.616699
2023-04-15T11:50:50.892Z,70.568848
2023-04-15T11:52:00.651Z,70.74585
2023-04-15T11:53:10.514Z,71.051025
2023-04-15T11:54:19.304Z,71.252441
2023-04-15T11:55:29.076Z,70.53833
2023-04-15T11:56:37.893Z,70.812988
2023-04-15T11:57:46.855Z,70.300293
2023-04-15T11:58:56.597Z,69.891357
2023-04-15T12:00:05.425Z,70.507812
2023-04-15T12:01:14.323Z,71.118164
2023-04-15T12:02:23.682Z,71.087646
2023-04-15T12:03:33.523Z,70.166016
2023-04-15T12:04:42.423Z,70.507812
2023-04-15T12:05:50.889Z,70.196533
2023-04-15T12:07:01.855Z,70.404053
2023-04-15T12:08:11.771Z,71.42334
2023-04-15T12:09:20.762Z,70.574951
2023-04-15T12:10:29.673Z,69.65332
2023-04-15T12:11:38.556Z,68.463135
2023-04-15T12:12:47.370Z,69.311523
2023-04-15T12:13:57.222Z,70.605469
2023-04-15T12:15:05.931Z,70.300293
2023-04-15T12:16:13.721Z,70.062256
2023-04-15T12:17:23.575Z,69.65332
2023-04-15T12:18:32.421Z,69.348145
2023-04-15T12:19:41.142Z,68.634033
2023-04-15T12:20:50.935Z,68.225098
2023-04-15T12:22:00.983Z,69.146729
2023-04-15T12:23:10.555Z,68.530273
2023-04-15T12:24:19.333Z,68.395996
2023-04-15T12:25:28.160Z,68.29834
2023-04-15T12:26:37.834Z,68.395996
2023-04-15T12:27:46.601Z,67.071533
2023-04-15T12:28:55.295Z,68.09082
2023-04-15T12:30:04.028Z,67.785645
2023-04-15T12:31:12.743Z,67.376709
2023-04-15T12:32:22.522Z,67.071533
2023-04-15T12:33:30.266Z,66.833496
2023-04-15T12:34:37.998Z,66.455078
2023-04-15T12:35:47.922Z,66.052246
2023-04-15T12:36:57.873Z,65.234375
2023-04-15T12:38:06.671Z,65.026855
2023-04-15T12:39:16.418Z,65.203857
2023-04-15T12:40:26.325Z,65.100098
2023-04-15T12:41:36.141Z,64.587402
2023-04-15T12:42:44.927Z,64.215088
2023-04-15T12:43:53.640Z,64.007568
2023-04-15T12:45:03.550Z,64.520264
2023-04-15T12:46:13.259Z,64.312744
2023-04-15T12:47:22.182Z,64.520264
2023-04-15T12:48:31.023Z,64.239502
2023-04-15T12:49:39.930Z,65.057373
2023-04-15T12:50:49.625Z,64.825439
2023-04-15T12:51:57.408Z,64.898682
2023-04-15T12:53:06.247Z,64.520264
2023-04-15T12:54:15.125Z,64.929199
2023-04-15T12:55:23.886Z,64.825439
2023-04-15T12:56:33.707Z,65.234375
2023-04-15T12:57:43.625Z,64.72168
2023-04-15T12:58:53.445Z,65.130615
2023-04-15T13:00:02.300Z,64.007568
2023-04-15T13:01:12.058Z,64.520264
2023-04-15T13:02:21.011Z,64.520264
2023-04-15T13:03:29.900Z,64.550781
2023-04-15T13:04:38.450Z,64.447021
2023-04-15T13:05:47.191Z,63.830566
2023-04-15T13:06:56.906Z,64.239502
2023-04-15T13:08:05.770Z,63.220215
2023-04-15T13:09:13.492Z,62.506104
2023-04-15T13:10:23.297Z,63.525391
2023-04-15T13:11:32.992Z,63.73291